SWA169 KTPA-KBNA
Flight info
| Callsign | SWA169 |
|---|---|
| Flight time | 1h 37m |
| Altitude | 38000 |
| Route | ENDED2 ATTAK BRUTS Q118 THRSR SWFFT3 THRSR |
| Aircraft | B738/M-S/L |
Departure
| Time | 2026-05-05 19:22 |
|---|---|
| Airport | Tampa International Airport (KTPA) |
Arrival
| Time | 2026-05-05 20:59 |
|---|---|
| Airport | Nashville International Airport (KBNA) |
| Time | Latitude | Longitude | Altitude | Speed | Heading |
|---|---|---|---|---|---|
| 2026-05-05 18:59 | 27.98368 | -82.53149 | 25 ft | 0 kts | 225° |
| 2026-05-05 19:13 | 27.98373 | -82.53143 | 25 ft | 2 kts | 225° |
| 2026-05-05 19:13 | 27.98379 | -82.53136 | 25 ft | 1 kts | 225° |
| 2026-05-05 19:14 | 27.98391 | -82.53126 | 25 ft | 2 kts | 206° |
| 2026-05-05 19:14 | 27.98404 | -82.53120 | 25 ft | 2 kts | 192° |
| 2026-05-05 19:14 | 27.98419 | -82.53118 | 25 ft | 2 kts | 175° |
| 2026-05-05 19:14 | 27.98434 | -82.53121 | 25 ft | 2 kts | 159° |
| 2026-05-05 19:15 | 27.98448 | -82.53130 | 25 ft | 2 kts | 143° |
| 2026-05-05 19:15 | 27.98453 | -82.53134 | 25 ft | 1 kts | 135° |
| 2026-05-05 19:15 | 27.98455 | -82.53136 | 25 ft | 0 kts | 137° |
| 2026-05-05 19:16 | 27.98453 | -82.53134 | 25 ft | 0 kts | 137° |
| 2026-05-05 19:16 | 27.98446 | -82.53127 | 25 ft | 1 kts | 137° |
| 2026-05-05 19:16 | 27.98435 | -82.53116 | 25 ft | 3 kts | 137° |
| 2026-05-05 19:17 | 27.98395 | -82.53074 | 26 ft | 10 kts | 137° |
| 2026-05-05 19:17 | 27.98350 | -82.53027 | 26 ft | 7 kts | 130° |
| 2026-05-05 19:17 | 27.98349 | -82.52975 | 26 ft | 6 kts | 51° |
| 2026-05-05 19:17 | 27.98386 | -82.52958 | 26 ft | 5 kts | 3° |
| 2026-05-05 19:18 | 27.98423 | -82.52955 | 26 ft | 6 kts | 3° |
| 2026-05-05 19:18 | 27.98474 | -82.52953 | 26 ft | 8 kts | 360° |
| 2026-05-05 19:18 | 27.98544 | -82.52953 | 26 ft | 11 kts | 1° |
| 2026-05-05 19:18 | 27.98619 | -82.52951 | 26 ft | 9 kts | 1° |
| 2026-05-05 19:19 | 27.98668 | -82.52950 | 26 ft | 5 kts | 1° |
| 2026-05-05 19:19 | 27.98694 | -82.52939 | 27 ft | 0 kts | 54° |
| 2026-05-05 19:20 | 27.98697 | -82.52934 | 27 ft | 2 kts | 59° |
| 2026-05-05 19:20 | 27.98705 | -82.52887 | 27 ft | 9 kts | 89° |
| 2026-05-05 19:20 | 27.98659 | -82.52824 | 27 ft | 14 kts | 176° |
| 2026-05-05 19:21 | 27.98532 | -82.52826 | 27 ft | 22 kts | 181° |
| 2026-05-05 19:21 | 27.98168 | -82.52840 | 26 ft | 89 kts | 181° |
| 2026-05-05 19:21 | 27.97301 | -82.52869 | 24 ft | 155 kts | 181° |
| 2026-05-05 19:21 | 27.96102 | -82.52910 | 368 ft | 182 kts | 181° |
| 2026-05-05 19:22 | 27.94841 | -82.52937 | 1229 ft | 178 kts | 180° |
| 2026-05-05 19:22 | 27.93595 | -82.53146 | 1609 ft | 196 kts | 195° |
| 2026-05-05 19:22 | 27.92228 | -82.53855 | 1646 ft | 233 kts | 211° |
| 2026-05-05 19:22 | 27.90982 | -82.55017 | 2383 ft | 232 kts | 225° |
| 2026-05-05 19:23 | 27.89961 | -82.56516 | 2723 ft | 256 kts | 238° |
| 2026-05-05 19:23 | 27.89314 | -82.58490 | 3096 ft | 276 kts | 261° |
| 2026-05-05 19:23 | 27.89511 | -82.60612 | 3959 ft | 274 kts | 291° |
| 2026-05-05 19:23 | 27.90636 | -82.62296 | 4645 ft | 277 kts | 325° |
| 2026-05-05 19:24 | 27.92371 | -82.63210 | 5394 ft | 278 kts | 342° |
| 2026-05-05 19:24 | 27.94235 | -82.63825 | 6141 ft | 280 kts | 345° |
| 2026-05-05 19:24 | 27.96114 | -82.64384 | 6953 ft | 281 kts | 344° |
| 2026-05-05 19:24 | 27.97980 | -82.64941 | 7771 ft | 281 kts | 343° |
| 2026-05-05 19:25 | 27.99863 | -82.65516 | 8557 ft | 283 kts | 343° |
| 2026-05-05 19:25 | 28.01770 | -82.66108 | 9383 ft | 285 kts | 342° |
| 2026-05-05 19:25 | 28.03675 | -82.66705 | 10204 ft | 286 kts | 342° |
| 2026-05-05 19:25 | 28.05617 | -82.67316 | 10759 ft | 298 kts | 342° |
| 2026-05-05 19:26 | 28.07642 | -82.67954 | 11367 ft | 307 kts | 342° |
| 2026-05-05 19:26 | 28.09712 | -82.68604 | 12228 ft | 308 kts | 342° |
| 2026-05-05 19:26 | 28.11775 | -82.69248 | 13060 ft | 308 kts | 341° |
| 2026-05-05 19:26 | 28.13777 | -82.69876 | 13817 ft | 311 kts | 341° |
| 2026-05-05 19:27 | 28.15856 | -82.70529 | 14599 ft | 314 kts | 341° |
| 2026-05-05 19:27 | 28.17948 | -82.71188 | 15431 ft | 316 kts | 341° |
| 2026-05-05 19:27 | 28.20081 | -82.71859 | 16215 ft | 318 kts | 341° |
| 2026-05-05 19:27 | 28.22195 | -82.72524 | 16953 ft | 321 kts | 341° |
| 2026-05-05 19:28 | 28.24362 | -82.73206 | 17684 ft | 323 kts | 341° |
| 2026-05-05 19:28 | 28.26528 | -82.73886 | 18362 ft | 326 kts | 340° |
| 2026-05-05 19:28 | 28.28712 | -82.74573 | 19035 ft | 329 kts | 340° |
| 2026-05-05 19:28 | 28.30923 | -82.75269 | 19650 ft | 333 kts | 340° |
| 2026-05-05 19:29 | 28.33175 | -82.75977 | 20297 ft | 335 kts | 340° |
| 2026-05-05 19:29 | 28.35415 | -82.76681 | 20892 ft | 338 kts | 339° |
| 2026-05-05 19:29 | 28.37709 | -82.77406 | 21455 ft | 342 kts | 340° |
| 2026-05-05 19:29 | 28.39985 | -82.78124 | 22029 ft | 344 kts | 339° |
| 2026-05-05 19:30 | 28.42339 | -82.78750 | 22593 ft | 349 kts | 343° |
| 2026-05-05 19:30 | 28.44725 | -82.79196 | 23189 ft | 351 kts | 345° |
| 2026-05-05 19:30 | 28.47172 | -82.79575 | 23746 ft | 354 kts | 347° |
| 2026-05-05 19:30 | 28.49601 | -82.79935 | 24329 ft | 355 kts | 346° |
| 2026-05-05 19:31 | 28.52064 | -82.80305 | 24860 ft | 357 kts | 346° |
| 2026-05-05 19:31 | 28.54526 | -82.80685 | 25453 ft | 357 kts | 346° |
| 2026-05-05 19:31 | 28.56979 | -82.81123 | 25959 ft | 357 kts | 343° |
| 2026-05-05 19:31 | 28.59390 | -82.81773 | 26406 ft | 358 kts | 339° |
| 2026-05-05 19:32 | 28.61790 | -82.82513 | 26930 ft | 359 kts | 341° |
| 2026-05-05 19:32 | 28.64244 | -82.83089 | 27401 ft | 363 kts | 343° |
| 2026-05-05 19:32 | 28.66758 | -82.83556 | 27817 ft | 367 kts | 345° |
| 2026-05-05 19:32 | 28.69295 | -82.83980 | 28355 ft | 367 kts | 345° |
| 2026-05-05 19:33 | 28.71814 | -82.84392 | 28730 ft | 370 kts | 345° |
| 2026-05-05 19:33 | 28.74352 | -82.84811 | 29149 ft | 371 kts | 345° |
| 2026-05-05 19:33 | 28.76903 | -82.85237 | 29707 ft | 370 kts | 345° |
| 2026-05-05 19:33 | 28.79483 | -82.85676 | 30026 ft | 374 kts | 345° |
| 2026-05-05 19:34 | 28.82058 | -82.86117 | 30455 ft | 375 kts | 345° |
| 2026-05-05 19:34 | 28.84632 | -82.86558 | 30979 ft | 373 kts | 345° |
| 2026-05-05 19:34 | 28.87190 | -82.86998 | 31255 ft | 377 kts | 345° |
| 2026-05-05 19:35 | 28.92379 | -82.87898 | 32044 ft | 379 kts | 344° |
| 2026-05-05 19:35 | 28.97626 | -82.88812 | 31971 ft | 379 kts | 344° |
| 2026-05-05 19:36 | 29.02835 | -82.89715 | 31985 ft | 379 kts | 345° |
| 2026-05-05 19:36 | 29.08155 | -82.90650 | 32009 ft | 395 kts | 345° |
| 2026-05-05 19:37 | 29.13696 | -82.91625 | 32010 ft | 412 kts | 345° |
| 2026-05-05 19:37 | 29.19418 | -82.92628 | 32004 ft | 424 kts | 345° |
| 2026-05-05 19:38 | 29.25292 | -82.93642 | 32006 ft | 419 kts | 345° |
| 2026-05-05 19:38 | 29.31095 | -82.94646 | 32004 ft | 420 kts | 345° |
| 2026-05-05 19:39 | 29.36866 | -82.95652 | 31999 ft | 421 kts | 345° |
| 2026-05-05 19:39 | 29.42699 | -82.96674 | 32004 ft | 420 kts | 345° |
| 2026-05-05 19:40 | 29.48449 | -82.97726 | 32009 ft | 419 kts | 343° |
| 2026-05-05 19:40 | 29.54041 | -82.99435 | 32007 ft | 412 kts | 335° |
| 2026-05-05 19:41 | 29.59369 | -83.01819 | 32010 ft | 409 kts | 333° |
| 2026-05-05 19:41 | 29.64598 | -83.04336 | 32014 ft | 408 kts | 332° |
| 2026-05-05 19:42 | 29.69831 | -83.06870 | 32015 ft | 410 kts | 333° |
| 2026-05-05 19:42 | 29.75078 | -83.09401 | 32014 ft | 409 kts | 332° |
| 2026-05-05 19:43 | 29.80348 | -83.11929 | 32006 ft | 408 kts | 333° |
| 2026-05-05 19:43 | 29.85572 | -83.14430 | 32004 ft | 407 kts | 332° |
| 2026-05-05 19:44 | 29.90817 | -83.16944 | 32000 ft | 407 kts | 332° |
| 2026-05-05 19:44 | 29.96034 | -83.19449 | 32005 ft | 407 kts | 333° |
| 2026-05-05 19:45 | 30.01245 | -83.21952 | 32001 ft | 409 kts | 332° |
| 2026-05-05 19:45 | 30.06515 | -83.24485 | 31994 ft | 408 kts | 333° |
| 2026-05-05 19:46 | 30.11756 | -83.27007 | 32002 ft | 408 kts | 333° |
| 2026-05-05 19:46 | 30.16987 | -83.29527 | 31998 ft | 407 kts | 332° |
| 2026-05-05 19:47 | 30.22214 | -83.32050 | 31996 ft | 407 kts | 333° |
| 2026-05-05 19:47 | 30.27429 | -83.34567 | 31999 ft | 407 kts | 333° |
| 2026-05-05 19:48 | 30.32654 | -83.37090 | 32001 ft | 407 kts | 332° |
| 2026-05-05 19:48 | 30.37861 | -83.39608 | 31999 ft | 406 kts | 332° |
| 2026-05-05 19:49 | 30.43129 | -83.42162 | 32004 ft | 407 kts | 333° |
| 2026-05-05 19:49 | 30.48314 | -83.44674 | 32003 ft | 405 kts | 332° |
| 2026-05-05 19:50 | 30.53552 | -83.47215 | 32005 ft | 406 kts | 333° |
| 2026-05-05 19:50 | 30.58742 | -83.49735 | 32004 ft | 405 kts | 333° |
| 2026-05-05 19:51 | 30.63942 | -83.52267 | 32009 ft | 406 kts | 333° |
| 2026-05-05 19:51 | 30.69142 | -83.54800 | 32011 ft | 407 kts | 333° |
| 2026-05-05 19:52 | 30.74357 | -83.57341 | 32009 ft | 404 kts | 332° |
| 2026-05-05 19:52 | 30.79543 | -83.59871 | 32007 ft | 405 kts | 332° |
| 2026-05-05 19:53 | 30.84734 | -83.62408 | 32009 ft | 404 kts | 332° |
| 2026-05-05 19:53 | 30.89940 | -83.64959 | 32005 ft | 406 kts | 332° |
| 2026-05-05 19:54 | 30.95116 | -83.67493 | 32014 ft | 403 kts | 332° |
| 2026-05-05 19:54 | 31.00295 | -83.70033 | 32016 ft | 402 kts | 332° |
| 2026-05-05 19:55 | 31.05461 | -83.72567 | 32023 ft | 404 kts | 332° |
| 2026-05-05 19:55 | 31.10634 | -83.75114 | 32024 ft | 404 kts | 332° |
| 2026-05-05 19:56 | 31.15834 | -83.77677 | 32020 ft | 404 kts | 332° |
| 2026-05-05 19:56 | 31.21003 | -83.80225 | 32017 ft | 405 kts | 332° |
| 2026-05-05 19:57 | 31.26168 | -83.82772 | 32011 ft | 405 kts | 332° |
| 2026-05-05 19:57 | 31.31381 | -83.85349 | 32009 ft | 403 kts | 332° |
| 2026-05-05 19:58 | 31.36545 | -83.87902 | 32003 ft | 405 kts | 332° |
| 2026-05-05 19:58 | 31.39129 | -83.89181 | 31889 ft | 400 kts | 332° |
| 2026-05-05 19:58 | 31.41650 | -83.90424 | 31636 ft | 389 kts | 332° |
| 2026-05-05 19:58 | 31.44132 | -83.91647 | 31381 ft | 378 kts | 332° |
| 2026-05-05 19:59 | 31.46518 | -83.92826 | 31130 ft | 371 kts | 332° |
| 2026-05-05 19:59 | 31.48910 | -83.94015 | 31025 ft | 380 kts | 332° |
| 2026-05-05 19:59 | 31.51386 | -83.95194 | 31015 ft | 392 kts | 334° |
| 2026-05-05 19:59 | 31.54057 | -83.96178 | 31013 ft | 405 kts | 339° |
| 2026-05-05 20:00 | 31.56822 | -83.96930 | 31017 ft | 416 kts | 342° |
| 2026-05-05 20:00 | 31.62616 | -83.98201 | 31016 ft | 424 kts | 343° |
| 2026-05-05 20:01 | 31.68416 | -83.99401 | 31009 ft | 423 kts | 343° |
| 2026-05-05 20:01 | 31.74228 | -84.00635 | 31010 ft | 424 kts | 343° |
| 2026-05-05 20:02 | 31.80025 | -84.01898 | 31001 ft | 424 kts | 343° |
| 2026-05-05 20:02 | 31.85820 | -84.03178 | 31000 ft | 424 kts | 343° |
| 2026-05-05 20:03 | 31.91654 | -84.04481 | 31002 ft | 426 kts | 343° |
| 2026-05-05 20:03 | 31.97363 | -84.05746 | 31004 ft | 412 kts | 343° |
| 2026-05-05 20:04 | 32.03104 | -84.07040 | 31008 ft | 425 kts | 342° |
| 2026-05-05 20:04 | 32.08912 | -84.08347 | 31005 ft | 425 kts | 343° |
| 2026-05-05 20:05 | 32.14635 | -84.09630 | 31014 ft | 424 kts | 343° |
| 2026-05-05 20:05 | 32.20367 | -84.10915 | 31005 ft | 425 kts | 343° |
| 2026-05-05 20:06 | 32.26200 | -84.12226 | 31003 ft | 425 kts | 343° |
| 2026-05-05 20:06 | 32.32008 | -84.13535 | 31003 ft | 426 kts | 343° |
| 2026-05-05 20:07 | 32.37816 | -84.14849 | 31001 ft | 425 kts | 343° |
| 2026-05-05 20:07 | 32.43655 | -84.16169 | 30995 ft | 426 kts | 342° |
| 2026-05-05 20:08 | 32.49439 | -84.17475 | 30997 ft | 424 kts | 343° |
| 2026-05-05 20:08 | 32.55274 | -84.18797 | 30998 ft | 425 kts | 343° |
| 2026-05-05 20:09 | 32.61071 | -84.20113 | 30998 ft | 425 kts | 343° |
| 2026-05-05 20:09 | 32.66891 | -84.21433 | 30995 ft | 426 kts | 342° |
| 2026-05-05 20:10 | 32.72702 | -84.22754 | 30997 ft | 427 kts | 343° |
| 2026-05-05 20:10 | 32.78542 | -84.24084 | 31001 ft | 425 kts | 343° |
| 2026-05-05 20:11 | 32.84343 | -84.25407 | 31013 ft | 428 kts | 342° |
| 2026-05-05 20:11 | 32.90165 | -84.26735 | 31013 ft | 425 kts | 343° |
| 2026-05-05 20:12 | 32.95984 | -84.28067 | 31022 ft | 426 kts | 342° |
| 2026-05-05 20:12 | 33.01832 | -84.29404 | 31018 ft | 426 kts | 342° |
| 2026-05-05 20:13 | 33.07667 | -84.30744 | 31020 ft | 428 kts | 343° |
| 2026-05-05 20:13 | 33.13470 | -84.32074 | 31008 ft | 426 kts | 342° |
| 2026-05-05 20:14 | 33.19352 | -84.33425 | 31008 ft | 429 kts | 343° |
| 2026-05-05 20:14 | 33.25182 | -84.34767 | 31014 ft | 427 kts | 342° |
| 2026-05-05 20:15 | 33.31078 | -84.36126 | 31020 ft | 427 kts | 343° |
| 2026-05-05 20:15 | 33.36881 | -84.37465 | 31025 ft | 429 kts | 343° |
| 2026-05-05 20:16 | 33.42744 | -84.38819 | 31020 ft | 427 kts | 342° |
| 2026-05-05 20:16 | 33.48580 | -84.40170 | 31018 ft | 428 kts | 342° |
| 2026-05-05 20:17 | 33.54425 | -84.41526 | 31018 ft | 427 kts | 342° |
| 2026-05-05 20:17 | 33.60143 | -84.42872 | 31015 ft | 425 kts | 341° |
| 2026-05-05 20:18 | 33.65802 | -84.44839 | 31013 ft | 420 kts | 335° |
| 2026-05-05 20:18 | 33.71262 | -84.47296 | 31011 ft | 419 kts | 333° |
| 2026-05-05 20:19 | 33.76693 | -84.49860 | 31011 ft | 419 kts | 333° |
| 2026-05-05 20:19 | 33.82142 | -84.52438 | 31008 ft | 419 kts | 333° |
| 2026-05-05 20:20 | 33.87602 | -84.55015 | 31010 ft | 421 kts | 333° |
| 2026-05-05 20:20 | 33.93065 | -84.57585 | 31011 ft | 421 kts | 333° |
| 2026-05-05 20:21 | 33.98490 | -84.60204 | 31009 ft | 419 kts | 331° |
| 2026-05-05 20:21 | 34.03724 | -84.63270 | 31006 ft | 417 kts | 328° |
| 2026-05-05 20:22 | 34.08866 | -84.66487 | 31009 ft | 416 kts | 327° |
| 2026-05-05 20:22 | 34.14016 | -84.69701 | 31009 ft | 418 kts | 327° |
| 2026-05-05 20:23 | 34.19198 | -84.72899 | 31007 ft | 416 kts | 328° |
| 2026-05-05 20:23 | 34.24356 | -84.76067 | 31002 ft | 415 kts | 328° |
| 2026-05-05 20:24 | 34.29498 | -84.79223 | 30997 ft | 415 kts | 328° |
| 2026-05-05 20:24 | 34.34670 | -84.82394 | 30990 ft | 416 kts | 328° |
| 2026-05-05 20:25 | 34.39820 | -84.85559 | 30983 ft | 415 kts | 328° |
| 2026-05-05 20:25 | 34.44976 | -84.88733 | 30983 ft | 416 kts | 328° |
| 2026-05-05 20:26 | 34.50145 | -84.91921 | 30978 ft | 412 kts | 328° |
| 2026-05-05 20:26 | 34.55293 | -84.95096 | 30978 ft | 415 kts | 328° |
| 2026-05-05 20:27 | 34.60405 | -84.98253 | 30981 ft | 414 kts | 328° |
| 2026-05-05 20:27 | 34.65533 | -85.01458 | 30975 ft | 410 kts | 326° |
| 2026-05-05 20:28 | 34.70412 | -85.05045 | 30975 ft | 411 kts | 322° |
| 2026-05-05 20:28 | 34.75194 | -85.08819 | 30968 ft | 410 kts | 322° |
| 2026-05-05 20:29 | 34.79980 | -85.12600 | 30967 ft | 410 kts | 322° |
| 2026-05-05 20:29 | 34.84789 | -85.16368 | 30961 ft | 408 kts | 322° |
| 2026-05-05 20:30 | 34.89600 | -85.20116 | 30959 ft | 413 kts | 323° |
| 2026-05-05 20:30 | 34.94390 | -85.23842 | 30952 ft | 409 kts | 322° |
| 2026-05-05 20:31 | 34.99220 | -85.27607 | 30961 ft | 411 kts | 323° |
| 2026-05-05 20:31 | 35.03977 | -85.31311 | 30950 ft | 395 kts | 322° |
| 2026-05-05 20:31 | 35.06270 | -85.33091 | 30710 ft | 383 kts | 322° |
| 2026-05-05 20:32 | 35.08465 | -85.34799 | 30262 ft | 377 kts | 322° |
| 2026-05-05 20:32 | 35.10593 | -85.36460 | 29681 ft | 379 kts | 322° |
| 2026-05-05 20:32 | 35.12832 | -85.38216 | 28902 ft | 382 kts | 322° |
| 2026-05-05 20:32 | 35.14936 | -85.40008 | 28230 ft | 380 kts | 318° |
| 2026-05-05 20:33 | 35.16966 | -85.42107 | 27981 ft | 380 kts | 314° |
| 2026-05-05 20:33 | 35.18871 | -85.44349 | 27953 ft | 386 kts | 311° |
| 2026-05-05 20:33 | 35.20763 | -85.46694 | 27941 ft | 387 kts | 311° |
| 2026-05-05 20:33 | 35.22631 | -85.49067 | 27944 ft | 389 kts | 310° |
| 2026-05-05 20:34 | 35.24487 | -85.51452 | 27942 ft | 387 kts | 310° |
| 2026-05-05 20:34 | 35.26350 | -85.53858 | 27945 ft | 387 kts | 310° |
| 2026-05-05 20:34 | 35.28187 | -85.56222 | 27941 ft | 388 kts | 310° |
| 2026-05-05 20:34 | 35.30051 | -85.58618 | 27944 ft | 387 kts | 310° |
| 2026-05-05 20:35 | 35.31923 | -85.61017 | 27666 ft | 384 kts | 310° |
| 2026-05-05 20:35 | 35.33744 | -85.63345 | 26971 ft | 383 kts | 310° |
| 2026-05-05 20:35 | 35.35526 | -85.65626 | 26204 ft | 383 kts | 310° |
| 2026-05-05 20:35 | 35.37352 | -85.67966 | 25461 ft | 383 kts | 309° |
| 2026-05-05 20:36 | 35.39082 | -85.70184 | 24778 ft | 382 kts | 309° |
| 2026-05-05 20:36 | 35.40895 | -85.72508 | 24064 ft | 382 kts | 309° |
| 2026-05-05 20:36 | 35.42732 | -85.74866 | 23328 ft | 381 kts | 309° |
| 2026-05-05 20:36 | 35.44542 | -85.77191 | 22627 ft | 380 kts | 309° |
| 2026-05-05 20:37 | 35.46370 | -85.79539 | 21920 ft | 380 kts | 309° |
| 2026-05-05 20:37 | 35.48181 | -85.81869 | 21209 ft | 379 kts | 309° |
| 2026-05-05 20:37 | 35.49991 | -85.84197 | 20492 ft | 379 kts | 310° |
| 2026-05-05 20:37 | 35.51807 | -85.86536 | 19776 ft | 378 kts | 310° |
| 2026-05-05 20:38 | 35.53609 | -85.88858 | 19154 ft | 375 kts | 310° |
| 2026-05-05 20:38 | 35.55400 | -85.91164 | 18940 ft | 361 kts | 310° |
| 2026-05-05 20:38 | 35.57064 | -85.93335 | 18920 ft | 342 kts | 309° |
| 2026-05-05 20:38 | 35.58648 | -85.95449 | 18923 ft | 333 kts | 308° |
| 2026-05-05 20:39 | 35.60218 | -85.97572 | 18923 ft | 338 kts | 308° |
| 2026-05-05 20:39 | 35.61805 | -85.99718 | 18918 ft | 337 kts | 308° |
| 2026-05-05 20:39 | 35.63367 | -86.01824 | 18917 ft | 336 kts | 308° |
| 2026-05-05 20:39 | 35.64945 | -86.03949 | 18918 ft | 337 kts | 308° |
| 2026-05-05 20:40 | 35.66522 | -86.06069 | 18922 ft | 337 kts | 308° |
| 2026-05-05 20:40 | 35.68108 | -86.08199 | 18913 ft | 336 kts | 309° |
| 2026-05-05 20:40 | 35.69687 | -86.10317 | 18916 ft | 335 kts | 308° |
| 2026-05-05 20:40 | 35.71203 | -86.12516 | 18909 ft | 336 kts | 304° |
| 2026-05-05 20:41 | 35.72546 | -86.14828 | 18901 ft | 333 kts | 301° |
| 2026-05-05 20:41 | 35.73809 | -86.17220 | 18854 ft | 332 kts | 300° |
| 2026-05-05 20:41 | 35.75035 | -86.19617 | 18430 ft | 330 kts | 299° |
| 2026-05-05 20:41 | 35.76255 | -86.22013 | 17830 ft | 330 kts | 300° |
| 2026-05-05 20:42 | 35.77478 | -86.24394 | 17277 ft | 329 kts | 300° |
| 2026-05-05 20:42 | 35.78692 | -86.26737 | 16704 ft | 328 kts | 300° |
| 2026-05-05 20:42 | 35.79925 | -86.29106 | 16150 ft | 326 kts | 300° |
| 2026-05-05 20:42 | 35.81137 | -86.31431 | 15590 ft | 325 kts | 301° |
| 2026-05-05 20:43 | 35.82359 | -86.33775 | 15020 ft | 325 kts | 300° |
| 2026-05-05 20:43 | 35.83577 | -86.36111 | 14445 ft | 324 kts | 301° |
| 2026-05-05 20:43 | 35.84794 | -86.38451 | 13876 ft | 324 kts | 301° |
| 2026-05-05 20:43 | 35.86007 | -86.40788 | 13314 ft | 323 kts | 301° |
| 2026-05-05 20:44 | 35.87197 | -86.43080 | 12763 ft | 322 kts | 301° |
| 2026-05-05 20:44 | 35.88405 | -86.45406 | 12201 ft | 321 kts | 300° |
| 2026-05-05 20:44 | 35.89614 | -86.47736 | 11643 ft | 321 kts | 300° |
| 2026-05-05 20:44 | 35.90794 | -86.50013 | 11280 ft | 314 kts | 299° |
| 2026-05-05 20:45 | 35.93058 | -86.54375 | 10924 ft | 291 kts | 299° |
| 2026-05-05 20:45 | 35.94144 | -86.56479 | 10476 ft | 291 kts | 298° |
| 2026-05-05 20:45 | 35.95226 | -86.58584 | 10050 ft | 289 kts | 298° |
| 2026-05-05 20:46 | 35.96292 | -86.60649 | 9852 ft | 279 kts | 298° |
| 2026-05-05 20:46 | 35.97322 | -86.62640 | 9521 ft | 277 kts | 298° |
| 2026-05-05 20:46 | 35.98362 | -86.64642 | 9075 ft | 278 kts | 299° |
| 2026-05-05 20:46 | 35.99480 | -86.66431 | 8965 ft | 271 kts | 305° |
| 2026-05-05 20:47 | 36.00692 | -86.68067 | 8966 ft | 267 kts | 307° |
| 2026-05-05 20:47 | 36.01980 | -86.69735 | 8965 ft | 267 kts | 308° |
| 2026-05-05 20:47 | 36.03249 | -86.71386 | 8964 ft | 260 kts | 308° |
| 2026-05-05 20:47 | 36.04451 | -86.72971 | 8964 ft | 249 kts | 307° |
| 2026-05-05 20:48 | 36.05615 | -86.74522 | 8963 ft | 239 kts | 306° |
| 2026-05-05 20:48 | 36.06708 | -86.75995 | 8889 ft | 229 kts | 306° |
| 2026-05-05 20:48 | 36.07764 | -86.77464 | 8577 ft | 230 kts | 304° |
| 2026-05-05 20:48 | 36.08815 | -86.78947 | 8280 ft | 230 kts | 304° |
| 2026-05-05 20:49 | 36.09872 | -86.80424 | 7999 ft | 230 kts | 305° |
| 2026-05-05 20:49 | 36.10938 | -86.81898 | 7721 ft | 229 kts | 304° |
| 2026-05-05 20:49 | 36.11998 | -86.83363 | 7409 ft | 230 kts | 305° |
| 2026-05-05 20:49 | 36.13014 | -86.84767 | 7147 ft | 229 kts | 304° |
| 2026-05-05 20:50 | 36.14071 | -86.86226 | 6848 ft | 230 kts | 304° |
| 2026-05-05 20:50 | 36.15134 | -86.87694 | 6599 ft | 228 kts | 304° |
| 2026-05-05 20:50 | 36.16194 | -86.89159 | 6303 ft | 228 kts | 304° |
| 2026-05-05 20:50 | 36.17251 | -86.90623 | 6039 ft | 227 kts | 304° |
| 2026-05-05 20:51 | 36.18304 | -86.92078 | 5736 ft | 228 kts | 304° |
| 2026-05-05 20:51 | 36.19368 | -86.93550 | 5416 ft | 230 kts | 304° |
| 2026-05-05 20:51 | 36.20431 | -86.95019 | 5127 ft | 231 kts | 304° |
| 2026-05-05 20:51 | 36.21505 | -86.96498 | 4864 ft | 230 kts | 304° |
| 2026-05-05 20:52 | 36.22619 | -86.97926 | 4565 ft | 235 kts | 314° |
| 2026-05-05 20:52 | 36.24133 | -86.98802 | 4326 ft | 245 kts | 349° |
| 2026-05-05 20:52 | 36.25798 | -86.98505 | 4200 ft | 242 kts | 23° |
| 2026-05-05 20:52 | 36.27184 | -86.97369 | 3981 ft | 238 kts | 46° |
| 2026-05-05 20:53 | 36.28122 | -86.95798 | 3904 ft | 224 kts | 73° |
| 2026-05-05 20:53 | 36.28334 | -86.93992 | 3760 ft | 204 kts | 104° |
| 2026-05-05 20:53 | 36.28003 | -86.92348 | 3552 ft | 193 kts | 118° |
| 2026-05-05 20:53 | 36.27412 | -86.90894 | 3346 ft | 184 kts | 130° |
| 2026-05-05 20:54 | 36.26730 | -86.89582 | 3130 ft | 180 kts | 127° |
| 2026-05-05 20:54 | 36.26302 | -86.88099 | 2945 ft | 183 kts | 112° |
| 2026-05-05 20:54 | 36.25951 | -86.86624 | 2852 ft | 173 kts | 120° |
| 2026-05-05 20:54 | 36.25469 | -86.85287 | 2813 ft | 170 kts | 127° |
| 2026-05-05 20:55 | 36.24860 | -86.84046 | 2771 ft | 166 kts | 133° |
| 2026-05-05 20:55 | 36.24164 | -86.82910 | 2729 ft | 166 kts | 137° |
| 2026-05-05 20:55 | 36.23415 | -86.81828 | 2682 ft | 164 kts | 139° |
| 2026-05-05 20:55 | 36.22651 | -86.80778 | 2636 ft | 163 kts | 140° |
| 2026-05-05 20:56 | 36.21899 | -86.79750 | 2582 ft | 163 kts | 140° |
| 2026-05-05 20:56 | 36.21138 | -86.78727 | 2464 ft | 158 kts | 142° |
| 2026-05-05 20:56 | 36.20395 | -86.77744 | 2305 ft | 150 kts | 142° |
| 2026-05-05 20:56 | 36.19711 | -86.76836 | 2089 ft | 140 kts | 143° |
| 2026-05-05 20:57 | 36.19055 | -86.75968 | 1922 ft | 136 kts | 143° |
| 2026-05-05 20:57 | 36.18419 | -86.75113 | 1741 ft | 132 kts | 142° |
| 2026-05-05 20:57 | 36.17773 | -86.74291 | 1566 ft | 130 kts | 148° |
| 2026-05-05 20:57 | 36.17114 | -86.73482 | 1450 ft | 133 kts | 147° |
| 2026-05-05 20:58 | 36.16522 | -86.72581 | 1307 ft | 137 kts | 138° |
| 2026-05-05 20:58 | 36.15849 | -86.71734 | 1145 ft | 139 kts | 144° |
| 2026-05-05 20:58 | 36.15162 | -86.70904 | 908 ft | 138 kts | 140° |
| 2026-05-05 20:58 | 36.14540 | -86.70006 | 744 ft | 136 kts | 140° |
| 2026-05-05 20:59 | 36.13865 | -86.69186 | 621 ft | 131 kts | 142° |
| 2026-05-05 20:59 | 36.13315 | -86.68488 | 608 ft | 86 kts | 134° |
| 2026-05-05 20:59 | 36.13067 | -86.68147 | 608 ft | 30 kts | 133° |
| 2026-05-05 20:59 | 36.12989 | -86.68022 | 608 ft | 15 kts | 83° |
| 2026-05-05 21:00 | 36.13021 | -86.67971 | 608 ft | 0 kts | 22° |
| 2026-05-05 21:00 | 36.13026 | -86.67969 | 608 ft | 1 kts | 22° |
| 2026-05-05 21:00 | 36.13041 | -86.67961 | 608 ft | 2 kts | 22° |
| 2026-05-05 21:00 | 36.13060 | -86.67951 | 608 ft | 3 kts | 22° |
| 2026-05-05 21:01 | 36.13078 | -86.67932 | 608 ft | 3 kts | 57° |
| 2026-05-05 21:01 | 36.13074 | -86.67901 | 608 ft | 3 kts | 123° |
| 2026-05-05 21:01 | 36.13060 | -86.67877 | 608 ft | 2 kts | 128° |
| 2026-05-05 21:01 | 36.13048 | -86.67859 | 608 ft | 2 kts | 129° |
| 2026-05-05 21:02 | 36.13037 | -86.67842 | 608 ft | 2 kts | 130° |
| 2026-05-05 21:02 | 36.13023 | -86.67823 | 608 ft | 5 kts | 134° |
| 2026-05-05 21:02 | 36.12975 | -86.67764 | 608 ft | 13 kts | 136° |
| 2026-05-05 21:02 | 36.12889 | -86.67657 | 608 ft | 19 kts | 132° |
| 2026-05-05 21:03 | 36.12801 | -86.67544 | 608 ft | 17 kts | 130° |
| 2026-05-05 21:03 | 36.12731 | -86.67448 | 608 ft | 12 kts | 133° |
| 2026-05-05 21:03 | 36.12671 | -86.67373 | 608 ft | 11 kts | 135° |
| 2026-05-05 21:03 | 36.12622 | -86.67310 | 607 ft | 9 kts | 133° |
| 2026-05-05 21:04 | 36.12602 | -86.67249 | 607 ft | 7 kts | 75° |
| 2026-05-05 21:04 | 36.12635 | -86.67199 | 607 ft | 7 kts | 44° |
| 2026-05-05 21:04 | 36.12670 | -86.67155 | 607 ft | 6 kts | 44° |
| 2026-05-05 21:04 | 36.12705 | -86.67114 | 607 ft | 6 kts | 44° |
| 2026-05-05 21:05 | 36.12737 | -86.67075 | 607 ft | 6 kts | 50° |
| 2026-05-05 21:05 | 36.12736 | -86.67026 | 607 ft | 6 kts | 134° |
| 2026-05-05 21:05 | 36.12712 | -86.66994 | 607 ft | 4 kts | 130° |
| 2026-05-05 21:05 | 36.12705 | -86.66966 | 607 ft | 3 kts | 80° |
| 2026-05-05 21:06 | 36.12724 | -86.66946 | 607 ft | 4 kts | 27° |
| 2026-05-05 21:06 | 36.12739 | -86.66937 | 607 ft | 0 kts | 26° |
| 2026-05-05 21:06 | 36.12742 | -86.66935 | 607 ft | 1 kts | 28° |
| 2026-05-05 21:06 | 36.12743 | -86.66934 | 607 ft | 0 kts | 28° |